Time;durP1;ratioP1;P1;durP2;ratioP2;P2;SDS_P1;SDS_P2;PMS_P1;PMS_P2;Temp;Humidity;BMP_temperature;BMP_pressure;BME280_temperature;BME280_humidity;BME280_pressure;Samples;Min_cycle;Max_cycle;Signal;HPM_P1;HPM_P2
2021/01/05 00:00:09;;;;;;;10.02;5.18;;;4.70;99.90;;;;;;4988602;28;20042;-56
2021/01/05 00:02:35;;;;;;;15.57;6.03;;;4.60;99.90;;;;;;4986214;28;20100;-56
2021/01/05 00:05:01;;;;;;;11.38;5.53;;;4.50;99.90;;;;;;4989919;28;20042;-53
2021/01/05 00:07:27;;;;;;;13.15;5.28;;;4.50;99.90;;;;;;4990355;28;20034;-55
2021/01/05 00:09:53;;;;;;;11.07;5.90;;;4.40;99.90;;;;;;4989081;28;20038;-56
2021/01/05 00:12:19;;;;;;;10.63;5.95;;;4.50;99.90;;;;;;4989999;28;20141;-58
2021/01/05 00:14:47;;;;;;;15.85;6.47;;;4.50;99.90;;;;;;4989462;28;20030;-54
2021/01/05 00:17:15;;;;;;;18.45;5.72;;;4.60;99.90;;;;;;4988972;28;20030;-52
2021/01/05 00:19:41;;;;;;;8.98;3.97;;;4.60;99.90;;;;;;4988661;28;20290;-56
2021/01/05 00:22:07;;;;;;;10.45;5.28;;;4.70;99.90;;;;;;4985549;28;20043;-54
2021/01/05 00:24:34;;;;;;;8.52;4.47;;;4.80;99.90;;;;;;4978571;28;20076;-54
2021/01/05 00:27:00;;;;;;;14.40;4.05;;;4.80;99.90;;;;;;4989251;28;20041;-55
2021/01/05 00:29:26;;;;;;;7.35;3.78;;;4.70;99.90;;;;;;4988686;28;20137;-55
2021/01/05 00:32:04;;;;;;;5.93;3.58;;;4.70;99.90;;;;;;4988358;28;20609;-57
2021/01/05 00:34:30;;;;;;;7.30;2.53;;;4.60;99.90;;;;;;4978543;28;20030;-54
2021/01/05 00:36:56;;;;;;;7.95;3.40;;;4.60;99.90;;;;;;4989768;28;20429;-57
2021/01/05 00:39:22;;;;;;;4.18;2.28;;;4.60;99.90;;;;;;4986654;28;20045;-55
2021/01/05 00:41:47;;;;;;;4.35;1.77;;;4.60;99.90;;;;;;5005899;28;20133;-56
2021/01/05 00:44:13;;;;;;;5.45;2.53;;;4.60;99.90;;;;;;4984185;28;20046;-56
2021/01/05 00:46:39;;;;;;;4.85;2.28;;;4.60;99.90;;;;;;4986416;28;20030;-54
2021/01/05 00:49:05;;;;;;;4.88;2.20;;;4.60;99.90;;;;;;4986158;28;20034;-57
2021/01/05 00:51:30;;;;;;;4.65;2.50;;;4.70;99.90;;;;;;4989793;28;20034;-54
2021/01/05 00:53:56;;;;;;;5.78;3.25;;;4.70;99.90;;;;;;4988590;28;20465;-56
2021/01/05 00:56:22;;;;;;;4.63;2.55;;;4.80;99.90;;;;;;4988318;28;20026;-57
2021/01/05 00:58:47;;;;;;;3.92;2.38;;;4.80;99.90;;;;;;4988538;28;20068;-52
2021/01/05 01:01:14;;;;;;;2.95;1.77;;;4.80;99.90;;;;;;4989667;28;20475;-54
2021/01/05 01:03:39;;;;;;;4.80;2.08;;;4.80;99.90;;;;;;4988044;28;20394;-53
2021/01/05 01:06:06;;;;;;;5.53;2.13;;;4.80;99.90;;;;;;4988136;28;20042;-52
2021/01/05 01:08:32;;;;;;;4.50;2.33;;;4.80;99.90;;;;;;4989399;28;20034;-54
2021/01/05 01:10:57;;;;;;;5.85;2.33;;;4.80;99.90;;;;;;4988046;28;20042;-53
2021/01/05 01:13:24;;;;;;;3.60;2.03;;;4.80;99.90;;;;;;4989738;28;20031;-52
2021/01/05 01:15:49;;;;;;;4.80;1.80;;;4.80;99.90;;;;;;4987628;28;20030;-55
2021/01/05 01:18:15;;;;;;;4.00;2.03;;;4.90;99.90;;;;;;4987962;28;20042;-50
2021/01/05 01:20:41;;;;;;;5.78;2.13;;;4.90;99.90;;;;;;4987999;28;20042;-47
2021/01/05 01:23:07;;;;;;;5.45;2.53;;;4.90;99.90;;;;;;4988994;28;20390;-57
2021/01/05 01:25:32;;;;;;;6.90;2.70;;;5.00;99.90;;;;;;4988030;28;20088;-54
2021/01/05 01:27:58;;;;;;;7.50;2.92;;;5.00;99.90;;;;;;4989069;28;20030;-54
2021/01/05 01:30:25;;;;;;;8.27;2.67;;;5.00;99.90;;;;;;4988175;28;20033;-54
2021/01/05 01:32:50;;;;;;;6.18;2.90;;;5.00;99.90;;;;;;4986919;28;20095;-54
2021/01/05 01:35:16;;;;;;;7.55;2.88;;;5.00;99.90;;;;;;4988167;28;20095;-51
2021/01/05 01:37:42;;;;;;;7.32;3.05;;;5.00;99.90;;;;;;4989000;28;20046;-53
2021/01/05 01:40:10;;;;;;;4.95;3.05;;;5.00;99.90;;;;;;4988025;28;20030;-51
2021/01/05 01:42:36;;;;;;;10.38;3.38;;;5.00;99.90;;;;;;4988093;28;20034;-53
2021/01/05 01:45:03;;;;;;;4.72;2.58;;;5.10;99.90;;;;;;4988003;28;20033;-55
2021/01/05 01:47:35;;;;;;;9.05;2.90;;;5.00;99.90;;;;;;4987117;28;20096;-54
2021/01/05 01:50:08;;;;;;;9.13;3.58;;;5.00;99.90;;;;;;4986785;28;20073;-51
2021/01/05 01:53:16;;;;;;;5.70;3.15;;;5.00;99.90;;;;;;4984225;28;20141;-55
2021/01/05 01:56:04;;;;;;;5.78;2.88;;;5.00;99.90;;;;;;4990559;28;20030;-55
2021/01/05 01:58:56;;;;;;;5.40;2.17;;;5.20;99.90;;;;;;4993152;28;20061;-57
2021/01/05 02:01:58;;;;;;;13.30;2.42;;;5.20;99.90;;;;;;4991377;28;20050;-51
2021/01/05 02:04:45;;;;;;;11.52;2.70;;;5.30;99.90;;;;;;4991671;28;20038;-50
2021/01/05 02:07:16;;;;;;;;;;;5.20;99.90;;;;;;4992844;28;20394;-53
2021/01/05 02:09:57;;;;;;;7.28;2.70;;;5.20;99.90;;;;;;4991787;28;19955;-56
2021/01/05 02:12:51;;;;;;;4.55;1.92;;;5.20;99.90;;;;;;4992417;28;20065;-53
2021/01/05 02:15:28;;;;;;;5.00;2.05;;;5.20;99.90;;;;;;4990707;28;20060;-56
2021/01/05 02:18:20;;;;;;;6.03;1.90;;;5.20;99.90;;;;;;4991284;28;20038;-53
2021/01/05 02:20:49;;;;;;;3.95;1.80;;;5.20;99.90;;;;;;4991063;28;20465;-51
2021/01/05 02:23:33;;;;;;;7.20;1.83;;;5.10;99.90;;;;;;4992302;28;20410;-51
2021/01/05 02:26:11;;;;;;;4.80;1.88;;;5.20;99.90;;;;;;4990385;28;20478;-52
2021/01/05 02:28:50;;;;;;;3.83;1.83;;;5.20;99.90;;;;;;4991328;28;20121;-53
2021/01/05 02:31:44;;;;;;;4.53;2.10;;;5.20;99.90;;;;;;4996541;28;20030;-57
2021/01/05 02:34:32;;;;;;;4.03;1.70;;;5.20;99.90;;;;;;4949350;28;20527;-49
2021/01/05 02:37:26;;;;;;;4.80;2.13;;;5.20;99.90;;;;;;4946847;28;20122;-52
2021/01/05 02:40:37;;;;;;;5.63;2.00;;;5.20;99.90;;;;;;4950008;28;20082;-53
2021/01/05 02:43:33;;;;;;;4.53;2.15;;;5.20;99.90;;;;;;4949030;29;20039;-53
2021/01/05 02:46:26;;;;;;;5.28;1.70;;;5.20;99.90;;;;;;4949262;28;20035;-54
2021/01/05 02:49:10;;;;;;;5.72;2.53;;;5.20;99.90;;;;;;4944252;29;20043;-54
2021/01/05 02:51:57;;;;;;;5.25;1.77;;;5.20;99.90;;;;;;4945684;28;20097;-57
2021/01/05 02:54:40;;;;;;;3.95;1.80;;;5.30;99.90;;;;;;4947674;29;20122;-54
2021/01/05 02:57:35;;;;;;;3.92;1.50;;;5.30;99.90;;;;;;4946730;28;20054;-50
2021/01/05 03:00:22;;;;;;;3.13;1.58;;;5.30;99.90;;;;;;4931170;29;20051;-54
2021/01/05 03:03:23;;;;;;;3.50;1.63;;;5.20;99.90;;;;;;4943555;28;20043;-52
2021/01/05 03:06:10;;;;;;;4.20;1.40;;;5.20;99.90;;;;;;4946482;28;20047;-53
2021/01/05 03:08:50;;;;;;;3.80;1.30;;;5.20;99.90;;;;;;4942319;29;20038;-55
2021/01/05 03:11:23;;;;;;;5.72;1.88;;;5.20;99.90;;;;;;4967044;28;20097;-51
2021/01/05 03:14:11;;;;;;;4.80;1.92;;;5.20;99.90;;;;;;4991429;28;20038;-52
2021/01/05 03:16:42;;;;;;;3.95;1.85;;;5.10;99.90;;;;;;4988771;28;20035;-58
2021/01/05 03:19:36;;;;;;;4.63;1.88;;;5.10;99.90;;;;;;4991162;28;20064;-51
2021/01/05 03:22:05;;;;;;;3.00;2.00;;;5.10;99.90;;;;;;4990191;28;20038;-53
2021/01/05 03:24:31;;;;;;;5.32;1.92;;;5.10;99.90;;;;;;4990996;28;20030;-50
2021/01/05 03:26:58;;;;;;;4.22;2.10;;;5.10;99.90;;;;;;4989224;28;20051;-51
2021/01/05 03:29:25;;;;;;;6.22;1.90;;;5.10;99.90;;;;;;4990048;28;20113;-54
2021/01/05 03:32:03;;;;;;;2.28;1.58;;;5.10;99.90;;;;;;4988909;28;20041;-51
2021/01/05 03:34:29;;;;;;;3.97;2.05;;;5.20;99.90;;;;;;4991181;28;20121;-53
2021/01/05 03:36:54;;;;;;;4.32;2.03;;;5.10;99.90;;;;;;4989572;28;20121;-51
2021/01/05 03:39:20;;;;;;;2.85;1.73;;;5.10;99.90;;;;;;4990595;28;20489;-51
2021/01/05 03:41:46;;;;;;;3.72;1.70;;;5.00;99.90;;;;;;4989798;28;20049;-52
2021/01/05 03:44:12;;;;;;;5.40;2.22;;;5.00;99.90;;;;;;4990711;28;20060;-53
2021/01/05 03:46:38;;;;;;;5.35;1.95;;;5.00;99.90;;;;;;4987790;28;20076;-51
2021/01/05 03:49:04;;;;;;;4.78;1.50;;;5.00;99.90;;;;;;4990686;28;20568;-48
2021/01/05 03:51:30;;;;;;;5.63;2.42;;;5.10;99.90;;;;;;4989705;28;20126;-51
2021/01/05 03:53:55;;;;;;;4.43;2.15;;;5.10;99.90;;;;;;4990247;28;20121;-55
2021/01/05 03:56:21;;;;;;;3.40;2.30;;;5.10;99.90;;;;;;4989674;28;20181;-52
2021/01/05 03:58:47;;;;;;;4.07;1.88;;;5.10;99.90;;;;;;4990501;28;20418;-56
2021/01/05 04:01:13;;;;;;;4.50;2.30;;;5.10;99.90;;;;;;4989541;28;20034;-54
2021/01/05 04:03:41;;;;;;;4.05;2.08;;;5.10;99.90;;;;;;4989136;28;20053;-51
2021/01/05 04:06:07;;;;;;;7.40;2.33;;;5.10;99.90;;;;;;4988474;28;20046;-54
2021/01/05 04:08:33;;;;;;;4.85;1.13;;;5.00;99.90;;;;;;4988694;28;20509;-53
2021/01/05 04:10:59;;;;;;;4.57;1.85;;;5.10;99.90;;;;;;4989208;28;20054;-53
2021/01/05 04:13:25;;;;;;;2.78;1.10;;;5.10;99.90;;;;;;4990136;28;20042;-55
2021/01/05 04:15:50;;;;;;;3.03;1.40;;;5.10;99.90;;;;;;4990299;28;20034;-49
2021/01/05 04:18:16;;;;;;;3.53;1.38;;;5.10;99.90;;;;;;4988010;28;20034;-52
2021/01/05 04:20:42;;;;;;;4.13;1.60;;;5.10;99.90;;;;;;4989086;28;20034;-53
2021/01/05 04:23:08;;;;;;;3.90;1.40;;;5.10;99.90;;;;;;4988458;28;20049;-55
2021/01/05 04:25:34;;;;;;;3.13;1.42;;;5.10;99.90;;;;;;4989130;28;20030;-52
2021/01/05 04:28:00;;;;;;;3.58;1.52;;;5.10;99.90;;;;;;4990175;28;20030;-55
2021/01/05 04:30:27;;;;;;;2.75;1.17;;;5.20;99.90;;;;;;4988868;28;20061;-50
2021/01/05 04:32:55;;;;;;;1.90;0.80;;;5.20;99.90;;;;;;4985464;28;20034;-51
2021/01/05 04:35:22;;;;;;;3.47;1.05;;;5.20;99.90;;;;;;4989187;28;20489;-51
2021/01/05 04:37:49;;;;;;;1.58;0.60;;;5.20;99.90;;;;;;4987775;28;20085;-47
2021/01/05 04:40:35;;;;;;;2.80;0.65;;;5.20;99.90;;;;;;4990048;28;20410;-53
2021/01/05 04:43:35;;;;;;;3.45;0.90;;;5.30;99.90;;;;;;4988636;28;20038;-51
2021/01/05 04:46:21;;;;;;;1.75;0.73;;;5.30;99.90;;;;;;4987867;28;20042;-52
2021/01/05 04:48:56;;;;;;;;;;;5.30;99.90;;;;;;4989065;28;20036;-53
2021/01/05 04:51:43;;;;;;;2.60;0.70;;;5.30;99.90;;;;;;4988560;28;19910;-50
2021/01/05 04:54:21;;;;;;;3.45;0.63;;;5.30;99.90;;;;;;4989203;28;20082;-49
2021/01/05 04:56:55;;;;;;;7.35;1.55;;;5.30;99.90;;;;;;4988873;28;20069;-54
2021/01/05 04:59:24;;;;;;;1.52;1.00;;;5.40;99.90;;;;;;4988571;28;20050;-53
2021/01/05 05:01:50;;;;;;;3.13;1.30;;;5.30;99.90;;;;;;4988151;28;20031;-57
2021/01/05 05:04:24;;;;;;;4.80;2.13;;;5.30;99.90;;;;;;4989216;28;20030;-55
2021/01/05 05:06:50;;;;;;;3.65;1.48;;;5.20;99.90;;;;;;4987914;28;20424;-56
2021/01/05 05:09:26;;;;;;;2.42;1.17;;;5.20;99.90;;;;;;4988705;28;20073;-52
2021/01/05 05:12:10;;;;;;;3.10;1.45;;;5.20;99.90;;;;;;4987423;28;20058;-54
2021/01/05 05:14:57;;;;;;;3.78;1.83;;;5.10;99.90;;;;;;4989233;28;20379;-52
2021/01/05 05:17:28;;;;;;;;;;;5.10;99.90;;;;;;4987583;28;20030;-50
2021/01/05 05:20:05;;;;;;;1.98;1.10;;;5.10;99.90;;;;;;4989506;28;19914;-56
2021/01/05 05:22:51;;;;;;;2.45;0.90;;;5.10;99.90;;;;;;4987127;28;20044;-56
2021/01/05 05:25:27;;;;;;;2.80;1.05;;;5.10;99.90;;;;;;4983093;28;20034;-54
2021/01/05 05:28:06;;;;;;;4.03;1.30;;;5.20;99.90;;;;;;4988282;28;20042;-53
2021/01/05 05:30:41;;;;;;;3.03;1.23;;;5.10;99.90;;;;;;4990372;28;20054;-53
2021/01/05 05:33:34;;;;;;;2.57;1.00;;;5.10;99.90;;;;;;4992194;28;20465;-54
2021/01/05 05:36:37;;;;;;;2.25;1.00;;;5.10;99.90;;;;;;4991856;28;20104;-53
2021/01/05 05:39:11;;;;;;;4.03;1.27;;;5.10;99.90;;;;;;4991734;28;20339;-53
2021/01/05 05:42:03;;;;;;;5.13;0.75;;;5.10;99.90;;;;;;4993009;28;20060;-54
2021/01/05 05:44:44;;;;;;;2.28;1.00;;;5.10;99.90;;;;;;4991289;28;20038;-54
2021/01/05 05:48:00;;;;;;;3.25;1.13;;;5.10;99.90;;;;;;4990654;28;20031;-51
2021/01/05 05:51:03;;;;;;;3.88;0.93;;;5.10;99.90;;;;;;4951126;28;20432;-50
2021/01/05 05:53:34;;;;;;;2.58;0.90;;;5.10;99.90;;;;;;4950499;28;20043;-54
2021/01/05 05:56:07;;;;;;;2.65;1.08;;;5.10;99.90;;;;;;4950586;28;20126;-54
2021/01/05 05:58:39;;;;;;;4.70;1.25;;;5.10;99.90;;;;;;4950223;28;20043;-51
2021/01/05 06:01:11;;;;;;;4.20;1.63;;;5.10;99.90;;;;;;4948810;28;20043;-54
2021/01/05 06:03:36;;;;;;;4.35;1.83;;;5.10;99.90;;;;;;4949866;29;20513;-52
2021/01/05 06:06:04;;;;;;;6.55;1.83;;;5.10;99.90;;;;;;4951180;29;20035;-49
2021/01/05 06:08:30;;;;;;;3.60;1.25;;;5.10;99.90;;;;;;4948876;28;20208;-52
2021/01/05 06:10:56;;;;;;;3.97;1.08;;;5.10;99.90;;;;;;4950515;29;20499;-54
2021/01/05 06:13:22;;;;;;;3.17;1.20;;;5.10;99.90;;;;;;4949995;29;20097;-53
2021/01/05 06:15:48;;;;;;;2.53;0.93;;;5.10;99.90;;;;;;4950748;29;20227;-50
2021/01/05 06:18:16;;;;;;;1.90;0.55;;;5.10;99.90;;;;;;4948766;28;20155;-51
2021/01/05 06:20:43;;;;;;;2.63;1.02;;;5.00;99.90;;;;;;4955450;28;20039;-57
2021/01/05 06:23:09;;;;;;;2.60;0.93;;;5.10;99.90;;;;;;4967726;28;20120;-55
2021/01/05 06:25:35;;;;;;;3.13;1.20;;;5.10;99.90;;;;;;4970134;28;20509;-47
2021/01/05 06:28:01;;;;;;;4.57;0.95;;;5.10;99.90;;;;;;4968960;28;20062;-54
2021/01/05 06:30:27;;;;;;;3.05;0.80;;;5.00;99.90;;;;;;4982752;28;20066;-52
2021/01/05 06:32:53;;;;;;;2.38;0.98;;;5.10;99.90;;;;;;4990764;28;20145;-57
2021/01/05 06:35:22;;;;;;;1.77;0.70;;;5.00;99.90;;;;;;4991990;28;20105;-51
2021/01/05 06:37:51;;;;;;;1.25;0.77;;;5.00;99.90;;;;;;4990887;28;20038;-49
2021/01/05 06:40:20;;;;;;;3.42;1.30;;;5.00;99.90;;;;;;4990343;28;20100;-49
2021/01/05 06:42:46;;;;;;;1.77;0.82;;;5.00;99.90;;;;;;4991583;28;20049;-56
2021/01/05 06:45:20;;;;;;;4.60;0.98;;;5.10;99.90;;;;;;4990730;28;20069;-54
2021/01/05 06:47:46;;;;;;;5.72;1.70;;;5.00;99.90;;;;;;4987729;28;20042;-52
2021/01/05 06:50:13;;;;;;;6.68;2.45;;;5.10;99.90;;;;;;4990007;28;20033;-53
2021/01/05 06:52:39;;;;;;;4.63;2.08;;;5.10;99.90;;;;;;4992224;28;20483;-54
2021/01/05 06:55:06;;;;;;;6.28;2.40;;;5.10;99.90;;;;;;4989208;28;20069;-54
2021/01/05 06:57:31;;;;;;;4.13;1.42;;;5.10;99.90;;;;;;4990657;28;20371;-49
2021/01/05 06:59:57;;;;;;;3.13;1.55;;;5.10;99.90;;;;;;4990442;28;20034;-51
2021/01/05 07:02:23;;;;;;;3.40;1.17;;;5.10;99.90;;;;;;4986795;28;20041;-52
2021/01/05 07:04:49;;;;;;;3.40;1.17;;;5.10;99.90;;;;;;4986775;28;20570;-52
2021/01/05 07:07:15;;;;;;;2.70;1.02;;;5.10;99.90;;;;;;4985453;28;20049;-52
2021/01/05 07:09:42;;;;;;;4.07;1.77;;;5.10;99.90;;;;;;4989152;28;20034;-54
2021/01/05 07:12:08;;;;;;;4.13;1.40;;;5.10;99.90;;;;;;4989100;28;20513;-52
2021/01/05 07:14:34;;;;;;;2.92;0.98;;;5.10;99.90;;;;;;4991682;28;20033;-54
2021/01/05 07:17:00;;;;;;;1.63;0.63;;;5.10;99.90;;;;;;4988072;28;20497;-56
2021/01/05 07:19:26;;;;;;;1.33;0.40;;;5.10;99.90;;;;;;4990718;28;20085;-52
2021/01/05 07:21:51;;;;;;;7.47;0.50;;;5.20;99.90;;;;;;4990171;28;20042;-54
2021/01/05 07:24:17;;;;;;;3.75;1.05;;;5.20;99.90;;;;;;4988652;28;20096;-47
2021/01/05 07:26:46;;;;;;;3.88;1.70;;;5.30;99.90;;;;;;4987260;28;20030;-51
2021/01/05 07:29:17;;;;;;;2.83;1.08;;;5.30;99.90;;;;;;4989132;28;20034;-50
2021/01/05 07:31:43;;;;;;;4.95;3.35;;;5.30;99.90;;;;;;4991230;28;20403;-52
2021/01/05 07:34:11;;;;;;;7.30;4.97;;;5.30;99.90;;;;;;4990968;28;20046;-53
2021/01/05 07:36:42;;;;;;;10.45;6.10;;;5.30;99.90;;;;;;4990820;28;20384;-57
2021/01/05 07:39:25;;;;;;;8.38;3.38;;;5.30;99.90;;;;;;4991059;28;20038;-52
2021/01/05 07:41:52;;;;;;;7.80;2.83;;;5.30;99.90;;;;;;4990768;28;20500;-54
2021/01/05 07:44:18;;;;;;;6.28;2.70;;;5.30;99.90;;;;;;4990803;28;20061;-56
2021/01/05 07:46:45;;;;;;;3.30;2.50;;;5.40;99.90;;;;;;4990595;28;20380;-53
2021/01/05 07:49:11;;;;;;;5.10;2.40;;;5.40;99.90;;;;;;4990562;28;20034;-55
2021/01/05 07:51:36;;;;;;;3.63;1.88;;;5.40;99.90;;;;;;4990203;28;20118;-49
2021/01/05 07:54:03;;;;;;;3.63;2.05;;;5.50;99.90;;;;;;4989858;28;20041;-54
2021/01/05 07:56:28;;;;;;;9.68;4.55;;;5.50;99.90;;;;;;4990510;28;20121;-51
2021/01/05 07:58:54;;;;;;;6.78;4.00;;;5.60;99.90;;;;;;4990668;28;20433;-52
2021/01/05 08:01:20;;;;;;;7.07;3.83;;;5.60;99.90;;;;;;4990571;28;20026;-50
2021/01/05 08:03:46;;;;;;;7.97;3.55;;;5.60;99.90;;;;;;4989967;28;20034;-48
2021/01/05 08:06:12;;;;;;;7.95;3.08;;;5.60;99.90;;;;;;4990637;28;20120;-53
2021/01/05 08:08:40;;;;;;;11.88;3.92;;;5.50;99.90;;;;;;4990185;28;20030;-52
2021/01/05 08:11:06;;;;;;;11.02;2.70;;;5.50;99.90;;;;;;4990113;28;20060;-55
2021/01/05 08:13:31;;;;;;;5.03;1.00;;;5.60;99.90;;;;;;4990080;28;20109;-53
2021/01/05 08:15:57;;;;;;;3.25;0.93;;;5.60;99.90;;;;;;4990405;28;20041;-52
2021/01/05 08:18:23;;;;;;;3.50;1.17;;;5.60;99.90;;;;;;4989874;28;20396;-54
2021/01/05 08:20:48;;;;;;;11.95;2.22;;;5.70;99.90;;;;;;4989875;28;20050;-50
2021/01/05 08:23:18;;;;;;;5.20;1.63;;;5.70;99.90;;;;;;4989856;28;20046;-54
2021/01/05 08:25:44;;;;;;;4.88;1.25;;;5.70;99.90;;;;;;4989873;28;20482;-48
2021/01/05 08:28:10;;;;;;;6.43;1.77;;;5.70;99.90;;;;;;4989730;28;20042;-53
2021/01/05 08:30:37;;;;;;;7.05;1.77;;;5.70;99.90;;;;;;4989623;28;20038;-51
2021/01/05 08:33:05;;;;;;;5.38;2.40;;;5.70;99.90;;;;;;4989706;28;20030;-57
2021/01/05 08:35:31;;;;;;;4.28;1.80;;;5.80;99.90;;;;;;4989630;28;20037;-50
2021/01/05 08:37:58;;;;;;;3.60;0.80;;;5.70;99.90;;;;;;4989523;28;20038;-47
2021/01/05 08:40:27;;;;;;;4.60;1.20;;;5.70;99.90;;;;;;4989519;28;20052;-55
2021/01/05 08:42:57;;;;;;;4.18;0.82;;;5.70;99.90;;;;;;4989423;28;20113;-53
2021/01/05 08:45:23;;;;;;;2.63;0.90;;;5.70;99.90;;;;;;4989405;28;20034;-55
2021/01/05 08:47:49;;;;;;;2.67;1.10;;;5.70;99.90;;;;;;4989560;28;20076;-55
2021/01/05 08:50:28;;;;;;;4.35;1.05;;;5.70;99.90;;;;;;4989605;28;20034;-54
2021/01/05 08:53:00;;;;;;;4.70;1.75;;;5.70;99.90;;;;;;4989485;28;20110;-53
2021/01/05 08:55:27;;;;;;;7.05;2.90;;;5.70;99.90;;;;;;4989608;28;20046;-52
2021/01/05 08:57:53;;;;;;;7.40;2.97;;;5.70;99.90;;;;;;4989307;28;20552;-56
2021/01/05 09:00:20;;;;;;;10.68;3.35;;;5.70;99.90;;;;;;4989635;28;20054;-52
2021/01/05 09:02:46;;;;;;;8.95;4.03;;;5.70;99.90;;;;;;4989282;28;20439;-56
2021/01/05 09:05:12;;;;;;;6.47;2.88;;;5.80;99.90;;;;;;4989411;28;20034;-54
2021/01/05 09:07:38;;;;;;;5.90;2.65;;;5.80;99.90;;;;;;4989391;28;20462;-53
2021/01/05 09:10:13;;;;;;;6.10;3.08;;;5.80;99.90;;;;;;4989178;28;20424;-53
2021/01/05 09:12:39;;;;;;;6.53;3.10;;;5.80;99.90;;;;;;4988903;28;20062;-53
2021/01/05 09:15:05;;;;;;;5.72;2.60;;;5.80;99.90;;;;;;4989224;28;20281;-54
2021/01/05 09:17:31;;;;;;;5.10;2.05;;;5.80;99.90;;;;;;4989292;28;20042;-53
2021/01/05 09:19:57;;;;;;;6.68;2.67;;;5.80;99.90;;;;;;4989104;28;20085;-56
2021/01/05 09:22:24;;;;;;;11.77;5.10;;;5.80;99.90;;;;;;4989369;28;20356;-57
2021/01/05 09:24:50;;;;;;;6.72;2.65;;;5.90;99.90;;;;;;4989003;28;20085;-55
2021/01/05 09:27:16;;;;;;;8.40;2.38;;;5.90;99.90;;;;;;4988804;28;20529;-57
2021/01/05 09:29:42;;;;;;;6.90;2.30;;;6.00;99.90;;;;;;4989238;28;20042;-56
2021/01/05 09:32:08;;;;;;;6.43;2.50;;;6.20;99.90;;;;;;4988978;28;20041;-53
2021/01/05 09:34:34;;;;;;;7.30;2.28;;;6.30;99.90;;;;;;4989149;28;20038;-56
2021/01/05 09:37:02;;;;;;;7.18;2.22;;;6.40;99.90;;;;;;4988972;28;20149;-55
2021/01/05 09:39:28;;;;;;;5.03;2.28;;;6.40;99.90;;;;;;4988900;28;20034;-57
2021/01/05 09:42:03;;;;;;;6.95;2.60;;;6.40;99.90;;;;;;4989235;28;20022;-55
2021/01/05 09:44:29;;;;;;;4.90;1.60;;;6.50;99.90;;;;;;4988860;28;20066;-58
2021/01/05 09:46:59;;;;;;;5.75;2.05;;;6.60;99.90;;;;;;4988755;28;20523;-64
2021/01/05 09:49:26;;;;;;;6.65;2.65;;;6.50;99.90;;;;;;4988185;28;20034;-59
2021/01/05 09:51:59;;;;;;;5.82;2.00;;;6.60;99.90;;;;;;4989030;28;20121;-63
2021/01/05 09:54:25;;;;;;;5.70;2.35;;;6.60;99.90;;;;;;4988805;28;20343;-60
2021/01/05 09:56:52;;;;;;;5.38;1.92;;;6.60;99.90;;;;;;4998284;28;20061;-55
2021/01/05 09:59:20;;;;;;;6.03;1.90;;;6.60;99.90;;;;;;5005393;28;20030;-54
2021/01/05 10:01:46;;;;;;;6.88;1.98;;;6.60;99.90;;;;;;4988086;28;20048;-54
2021/01/05 10:04:12;;;;;;;4.28;1.58;;;6.60;99.90;;;;;;4988574;28;20504;-57
2021/01/05 10:06:38;;;;;;;7.10;2.15;;;6.60;99.90;;;;;;4981588;28;20177;-55
2021/01/05 10:09:08;;;;;;;4.07;1.20;;;6.50;99.90;;;;;;4969202;28;20113;-54
2021/01/05 10:11:42;;;;;;;4.03;1.67;;;6.60;99.90;;;;;;4970084;28;20054;-56
2021/01/05 10:14:11;;;;;;;6.13;1.60;;;6.70;99.90;;;;;;4997299;28;20038;-58
2021/01/05 10:16:37;;;;;;;4.45;1.75;;;6.70;99.90;;;;;;5008281;28;20466;-54
2021/01/05 10:19:02;;;;;;;6.60;1.90;;;6.70;99.90;;;;;;4987939;28;20037;-54
2021/01/05 10:21:40;;;;;;;8.48;1.92;;;6.80;99.90;;;;;;4991949;28;20026;-55
2021/01/05 10:24:07;;;;;;;5.15;1.73;;;6.80;99.90;;;;;;4991874;28;20030;-56
2021/01/05 10:26:33;;;;;;;8.02;3.22;;;6.90;99.90;;;;;;4995061;28;20034;-56
2021/01/05 10:28:59;;;;;;;3.90;1.33;;;6.90;99.90;;;;;;4991871;28;20092;-57
2021/01/05 10:31:25;;;;;;;7.10;1.70;;;7.00;99.90;;;;;;4992427;28;20153;-55
2021/01/05 10:33:50;;;;;;;3.55;1.58;;;7.00;99.90;;;;;;4992672;28;20069;-58
2021/01/05 10:36:18;;;;;;;4.80;1.98;;;7.00;99.90;;;;;;4992034;28;20086;-53
2021/01/05 10:38:48;;;;;;;3.38;1.52;;;7.00;99.90;;;;;;4991760;28;20052;-55
2021/01/05 10:41:17;;;;;;;4.38;1.45;;;7.00;99.90;;;;;;4989865;28;20037;-54
2021/01/05 10:43:44;;;;;;;4.40;1.20;;;7.10;99.90;;;;;;4991342;28;20045;-54
2021/01/05 10:46:11;;;;;;;2.58;1.10;;;7.00;99.90;;;;;;4991908;28;20031;-48
2021/01/05 10:48:37;;;;;;;6.68;1.83;;;7.00;99.90;;;;;;4991466;28;20070;-54
2021/01/05 10:51:04;;;;;;;6.30;2.50;;;7.00;99.90;;;;;;4991736;28;20030;-52
2021/01/05 10:53:40;;;;;;;28.85;9.40;;;7.00;99.90;;;;;;4991685;28;20034;-54
2021/01/05 10:56:05;;;;;;;9.10;3.97;;;7.00;99.90;;;;;;4991687;28;20478;-58
2021/01/05 10:58:31;;;;;;;6.40;2.65;;;7.00;99.90;;;;;;4991253;28;20275;-53
2021/01/05 11:00:57;;;;;;;6.15;3.15;;;7.00;99.90;;;;;;4989745;28;20048;-51
2021/01/05 11:03:22;;;;;;;15.80;6.35;;;7.00;99.90;;;;;;5005716;28;20048;-55
2021/01/05 11:05:48;;;;;;;15.80;5.10;;;7.00;99.90;;;;;;5011072;28;20397;-55
2021/01/05 11:08:14;;;;;;;4.97;2.70;;;7.10;99.90;;;;;;5006826;28;20575;-55
2021/01/05 11:10:39;;;;;;;6.78;2.78;;;7.20;99.90;;;;;;4991251;28;20026;-59
2021/01/05 11:13:05;;;;;;;5.22;1.88;;;7.30;99.90;;;;;;4989592;28;20041;-54
2021/01/05 11:15:31;;;;;;;3.88;1.80;;;7.30;99.90;;;;;;4989455;28;20052;-51
2021/01/05 11:17:58;;;;;;;6.95;2.17;;;7.40;99.90;;;;;;4989403;28;20066;-54
2021/01/05 11:20:24;;;;;;;3.63;1.65;;;7.60;99.90;;;;;;4990940;28;20034;-57
2021/01/05 11:22:50;;;;;;;4.85;2.60;;;7.70;99.90;;;;;;4985540;28;20048;-55
2021/01/05 11:25:18;;;;;;;3.53;1.20;;;7.80;99.90;;;;;;4990275;28;20034;-55
2021/01/05 11:27:44;;;;;;;3.45;1.38;;;7.90;99.90;;;;;;4990363;28;20130;-53
2021/01/05 11:30:16;;;;;;;2.50;1.10;;;7.80;99.90;;;;;;4992793;28;20030;-51
2021/01/05 11:32:42;;;;;;;7.45;1.45;;;7.70;99.90;;;;;;4989233;28;20057;-54
2021/01/05 11:35:09;;;;;;;1.77;0.77;;;7.70;99.90;;;;;;4989060;28;20066;-52
2021/01/05 11:37:35;;;;;;;3.40;0.77;;;7.70;99.90;;;;;;4989324;28;20065;-57
2021/01/05 11:40:03;;;;;;;2.50;0.95;;;7.70;99.90;;;;;;4989640;28;20041;-54
2021/01/05 11:42:29;;;;;;;1.80;0.85;;;7.70;99.90;;;;;;4990431;28;20130;-51
2021/01/05 11:44:54;;;;;;;2.72;0.98;;;7.70;99.90;;;;;;4991052;28;20469;-52
2021/01/05 11:47:21;;;;;;;4.60;1.23;;;7.80;99.90;;;;;;4990721;28;20113;-53
2021/01/05 11:49:48;;;;;;;3.30;1.45;;;7.80;99.90;;;;;;4990854;28;20035;-55
2021/01/05 11:52:14;;;;;;;1.95;1.02;;;7.80;99.90;;;;;;4989758;28;20030;-58
2021/01/05 11:54:40;;;;;;;2.95;0.88;;;7.70;99.90;;;;;;4991216;28;20035;-53
2021/01/05 11:57:06;;;;;;;3.17;1.13;;;7.80;99.90;;;;;;4990785;28;20463;-54
2021/01/05 11:59:31;;;;;;;3.67;1.85;;;7.70;99.90;;;;;;4990727;28;20425;-52
2021/01/05 12:02:01;;;;;;;5.25;1.90;;;7.80;99.90;;;;;;4990475;28;20502;-53
2021/01/05 12:04:27;;;;;;;4.25;1.65;;;7.80;99.90;;;;;;4988962;28;20057;-56
2021/01/05 12:06:54;;;;;;;2.40;0.80;;;7.70;99.90;;;;;;4990517;28;20041;-56
2021/01/05 12:09:22;;;;;;;2.83;1.40;;;7.80;99.90;;;;;;4990276;28;20153;-59
2021/01/05 12:11:48;;;;;;;2.83;1.10;;;7.80;99.90;;;;;;4989844;28;20081;-56
2021/01/05 12:14:15;;;;;;;2.28;0.90;;;7.90;99.90;;;;;;4990496;28;20470;-57
2021/01/05 12:16:47;;;;;;;1.50;0.45;;;7.90;99.90;;;;;;4990263;28;20418;-55
2021/01/05 12:19:22;;;;;;;1.48;0.52;;;8.00;99.90;;;;;;4990243;28;20537;-55
2021/01/05 12:21:48;;;;;;;3.53;0.50;;;8.00;99.90;;;;;;4988693;28;20576;-56
2021/01/05 12:24:20;;;;;;;0.80;0.30;;;8.00;99.90;;;;;;4989759;28;20147;-58
2021/01/05 12:26:47;;;;;;;4.72;0.70;;;8.00;99.90;;;;;;4990355;28;20250;-51
2021/01/05 12:29:14;;;;;;;2.58;0.65;;;8.00;99.90;;;;;;4990010;28;20120;-54
2021/01/05 12:31:46;;;;;;;2.58;1.13;;;7.90;99.90;;;;;;4985895;28;20038;-55
2021/01/05 12:34:15;;;;;;;2.58;0.82;;;7.90;99.90;;;;;;4982522;28;20041;-58
2021/01/05 12:36:42;;;;;;;3.60;1.13;;;7.90;99.90;;;;;;4989732;28;20113;-56
2021/01/05 12:39:13;;;;;;;5.88;2.10;;;8.00;99.90;;;;;;4998704;28;20048;-50
2021/01/05 12:41:39;;;;;;;4.45;1.10;;;8.00;99.90;;;;;;5009558;28;20040;-52
2021/01/05 12:44:07;;;;;;;1.52;0.60;;;8.00;99.90;;;;;;4996702;28;20203;-59
2021/01/05 12:46:37;;;;;;;3.03;0.65;;;8.00;99.90;;;;;;4989013;28;20117;-55
2021/01/05 12:49:05;;;;;;;2.15;0.90;;;8.00;99.90;;;;;;4990037;28;20120;-54
2021/01/05 12:51:39;;;;;;;3.47;0.73;;;7.90;99.90;;;;;;4986715;28;20034;-57
2021/01/05 12:54:07;;;;;;;3.90;0.90;;;7.70;99.90;;;;;;4975447;28;20045;-55
2021/01/05 12:56:33;;;;;;;2.28;0.50;;;7.80;99.90;;;;;;4985361;28;20077;-57
2021/01/05 12:58:58;;;;;;;5.18;0.85;;;7.80;99.90;;;;;;4988325;28;20038;-52
2021/01/05 13:01:25;;;;;;;4.63;1.58;;;7.80;99.90;;;;;;4988289;28;20117;-53
2021/01/05 13:03:51;;;;;;;14.15;5.18;;;7.80;99.90;;;;;;4986369;28;20034;-57
2021/01/05 13:06:18;;;;;;;8.18;3.40;;;7.70;99.90;;;;;;4983697;28;20027;-56
2021/01/05 13:08:45;;;;;;;3.63;1.40;;;7.70;99.90;;;;;;4969840;28;20041;-50
2021/01/05 13:11:23;;;;;;;3.17;1.42;;;7.70;99.90;;;;;;4981222;28;20049;-55
2021/01/05 13:13:49;;;;;;;3.50;0.90;;;7.70;99.90;;;;;;4988937;28;20041;-57